Time;durP1;ratioP1;P1;durP2;ratioP2;P2;SDS_P1;SDS_P2;PMS_P1;PMS_P2;Temp;Humidity;BMP_temperature;BMP_pressure;BME280_temperature;BME280_humidity;BME280_pressure;Samples;Min_cycle;Max_cycle;Signal;HPM_P1;HPM_P2
2023/06/19 00:00:30;;;;;;;10.70;8.27;;;;;;;21.55;59.02;98438.84;4963576;28;20242;-63
2023/06/19 00:02:56;;;;;;;9.03;7.90;;;;;;;21.55;59.79;98452.94;4963399;28;20235;-63
2023/06/19 00:05:24;;;;;;;9.87;7.00;;;;;;;21.64;60.28;98477.38;4965957;28;20237;-63
2023/06/19 00:07:58;;;;;;;7.93;6.67;;;;;;;21.71;60.43;98506.47;4968136;28;20320;-63
2023/06/19 00:10:25;;;;;;;6.77;5.83;;;;;;;21.78;62.08;98500.00;4960549;28;20293;-63
2023/06/19 00:12:52;;;;;;;8.73;5.77;;;;;;;21.76;62.24;98499.44;4968284;28;20242;-63
2023/06/19 00:15:22;;;;;;;8.00;5.90;;;;;;;21.73;62.82;98518.47;4964219;28;20621;-63
2023/06/19 00:17:48;;;;;;;6.20;5.60;;;;;;;21.68;63.33;98511.19;4963295;28;20332;-63
2023/06/19 00:20:40;;;;;;;11.87;5.70;;;;;;;21.59;64.88;98511.72;4962180;28;20233;-63
2023/06/19 00:23:11;;;;;;;8.37;5.70;;;;;;;21.50;66.36;98521.84;4959460;28;20238;-63
2023/06/19 00:25:37;;;;;;;8.00;5.73;;;;;;;21.39;70.47;98518.91;4966184;28;20220;-63
2023/06/19 00:28:12;;;;;;;9.83;5.57;;;;;;;21.19;73.49;98511.22;4962415;28;20971;-63
2023/06/19 00:30:38;;;;;;;5.70;4.83;;;;;;;21.08;75.21;98509.28;4966476;28;20227;-63
2023/06/19 00:33:06;;;;;;;7.17;5.97;;;;;;;20.89;79.02;98501.34;4964870;28;20259;-63
2023/06/19 00:35:33;;;;;;;7.63;5.57;;;;;;;20.72;78.74;98509.06;4953937;28;20219;-63
2023/06/19 00:38:00;;;;;;;8.70;5.87;;;;;;;20.62;79.88;98504.25;4953100;28;20231;-64
2023/06/19 00:40:30;;;;;;;5.90;5.20;;;;;;;20.53;80.25;98516.19;4941504;28;20310;-64
2023/06/19 00:42:57;;;;;;;5.70;5.10;;;;;;;20.44;82.10;98515.63;4964744;28;20234;-64
2023/06/19 00:45:25;;;;;;;6.17;5.03;;;;;;;20.26;84.12;98516.41;4946937;28;20238;-64
2023/06/19 00:47:52;;;;;;;7.70;4.47;;;;;;;20.22;83.72;98523.16;4972680;28;20260;-64
2023/06/19 00:50:23;;;;;;;6.80;4.23;;;;;;;20.16;83.09;98526.69;4965751;28;20239;-64
2023/06/19 00:52:50;;;;;;;5.50;4.83;;;;;;;20.16;84.44;98529.34;4949862;28;20361;-64
2023/06/19 00:55:23;;;;;;;5.87;4.13;;;;;;;20.14;84.18;98536.69;4953951;28;20314;-63
2023/06/19 00:57:52;;;;;;;7.70;4.10;;;;;;;20.17;84.42;98534.41;4950978;28;20248;-63
2023/06/19 01:00:23;;;;;;;6.30;4.50;;;;;;;20.16;86.41;98534.63;4940788;28;20238;-64
2023/06/19 01:02:50;;;;;;;7.00;3.97;;;;;;;20.06;85.50;98524.53;4973047;28;20287;-64
2023/06/19 01:05:22;;;;;;;7.07;4.20;;;;;;;19.97;89.37;98513.38;4950998;28;20607;-63
2023/06/19 01:08:03;;;;;;;6.97;4.60;;;;;;;19.83;92.24;98499.38;4959534;28;20220;-62
2023/06/19 01:10:37;;;;;;;7.30;4.80;;;;;;;19.66;93.72;98477.88;4952740;28;20314;-63
2023/06/19 01:13:11;;;;;;;7.27;5.13;;;;;;;19.53;94.06;98476.13;4967433;28;20241;-62
2023/06/19 01:15:40;;;;;;;7.73;4.87;;;;;;;19.46;95.74;98460.31;4971700;28;20613;-63
2023/06/19 01:18:11;;;;;;;9.93;5.70;;;;;;;19.35;99.07;98454.84;4963967;28;20623;-62
2023/06/19 01:20:38;;;;;;;6.97;5.47;;;;;;;19.23;100.00;98438.84;4959176;28;20651;-62
2023/06/19 01:23:10;;;;;;;11.47;4.77;;;;;;;19.15;100.00;98419.56;4953321;28;20235;-63
2023/06/19 01:25:37;;;;;;;5.03;4.53;;;;;;;19.12;100.00;98413.88;4975407;28;20228;-63
2023/06/19 01:28:05;;;;;;;4.90;4.40;;;;;;;19.10;100.00;98406.16;4973602;28;20575;-63
2023/06/19 01:30:33;;;;;;;5.93;3.77;;;;;;;19.07;99.88;98408.44;4956871;28;20314;-62
2023/06/19 01:33:06;;;;;;;5.83;4.33;;;;;;;19.05;99.05;98407.81;4954316;28;20671;-62
2023/06/19 01:35:36;;;;;;;5.13;4.17;;;;;;;19.06;99.04;98398.88;4975199;28;21190;-62
2023/06/19 01:38:03;;;;;;;6.07;4.63;;;;;;;19.02;100.00;98398.47;4954636;28;20301;-63
2023/06/19 01:40:36;;;;;;;5.13;4.20;;;;;;;19.00;99.10;98396.03;4973878;28;20234;-64
2023/06/19 01:43:04;;;;;;;5.43;3.73;;;;;;;19.00;100.00;98392.56;4971534;28;20670;-62
2023/06/19 01:45:31;;;;;;;5.70;4.07;;;;;;;18.98;100.00;98413.97;4978845;28;20253;-63
2023/06/19 01:48:00;;;;;;;7.13;4.90;;;;;;;18.99;100.00;98412.94;4976669;28;20646;-63
2023/06/19 01:50:27;;;;;;;5.57;4.70;;;;;;;18.93;100.00;98416.38;4957979;28;20242;-62
2023/06/19 01:52:54;;;;;;;5.27;4.00;;;;;;;18.77;100.00;98415.00;4966858;28;20235;-62
2023/06/19 01:55:23;;;;;;;7.17;4.30;;;;;;;18.74;100.00;98413.59;4961783;28;20226;-63
2023/06/19 01:57:51;;;;;;;6.43;4.50;;;;;;;18.62;100.00;98412.63;4954478;28;20712;-62
2023/06/19 02:00:23;;;;;;;5.20;4.00;;;;;;;18.40;100.00;98401.53;4954965;28;20225;-62
2023/06/19 02:02:49;;;;;;;5.73;4.23;;;;;;;18.39;100.00;98408.63;4975678;28;20241;-62
2023/06/19 02:05:24;;;;;;;7.37;4.70;;;;;;;18.32;100.00;98404.38;4971294;28;20229;-62
2023/06/19 02:07:50;;;;;;;7.13;4.00;;;;;;;18.25;100.00;98413.13;4976339;28;20284;-62
2023/06/19 02:10:23;;;;;;;5.07;3.80;;;;;;;18.23;100.00;98409.06;4956515;28;20230;-62
2023/06/19 02:12:51;;;;;;;5.23;4.23;;;;;;;18.20;100.00;98404.19;4957618;28;20240;-62
2023/06/19 02:15:23;;;;;;;5.53;4.40;;;;;;;18.17;100.00;98420.44;4957573;28;20229;-62
2023/06/19 02:17:54;;;;;;;6.37;4.23;;;;;;;18.18;100.00;98422.91;4963820;28;20230;-62
2023/06/19 02:20:24;;;;;;;6.27;4.53;;;;;;;18.21;100.00;98433.06;4973969;28;20227;-62
2023/06/19 02:22:51;;;;;;;4.93;4.17;;;;;;;18.21;100.00;98419.03;4975313;28;20235;-62
2023/06/19 02:25:23;;;;;;;6.57;4.00;;;;;;;18.22;100.00;98424.13;4950779;28;20677;-63
2023/06/19 02:27:51;;;;;;;4.03;3.47;;;;;;;18.17;100.00;98423.09;4976350;28;20758;-63
2023/06/19 02:30:22;;;;;;;4.90;3.70;;;;;;;18.14;100.00;98422.47;4954872;28;20252;-63
2023/06/19 02:32:49;;;;;;;4.50;3.77;;;;;;;18.14;100.00;98419.03;4956241;28;20228;-63
2023/06/19 02:35:41;;;;;;;5.70;4.13;;;;;;;18.16;100.00;98417.00;4971139;28;20303;-63
2023/06/19 02:38:08;;;;;;;5.20;4.00;;;;;;;18.05;100.00;98421.06;4970313;28;20311;-63
2023/06/19 02:40:34;;;;;;;6.13;3.83;;;;;;;18.02;100.00;98421.47;4974753;28;20234;-63
2023/06/19 02:43:02;;;;;;;6.03;3.23;;;;;;;18.05;100.00;98413.13;4954186;28;20227;-63
2023/06/19 02:45:29;;;;;;;4.27;3.40;;;;;;;18.10;100.00;98413.34;4954978;28;20701;-63
2023/06/19 02:47:55;;;;;;;4.03;3.50;;;;;;;18.11;100.00;98403.59;4957885;28;20727;-63
2023/06/19 02:50:23;;;;;;;3.23;2.30;;;;;;;18.20;100.00;98393.63;4958733;28;20234;-63
2023/06/19 02:52:49;;;;;;;2.43;1.77;;;;;;;18.49;96.60;98396.81;4972835;28;20699;-63
2023/06/19 02:55:22;;;;;;;4.97;2.33;;;;;;;18.65;95.36;98404.28;4971030;28;20234;-63
2023/06/19 02:57:49;;;;;;;2.53;1.83;;;;;;;18.71;95.18;98402.63;4976342;28;20239;-63
2023/06/19 03:03:57;;;;;;;2.80;2.50;;;;;;;18.88;94.42;98395.03;5617439;23;20226;-63
2023/06/19 03:06:25;;;;;;;2.90;2.20;;;;;;;18.91;94.31;98394.63;4913682;29;20268;-63
2023/06/19 03:08:52;;;;;;;4.63;2.43;;;;;;;18.93;94.35;98402.34;4931509;29;20268;-63
2023/06/19 03:11:19;;;;;;;2.47;1.90;;;;;;;18.87;93.98;98396.06;4919168;29;20306;-63
2023/06/19 03:13:47;;;;;;;2.83;2.53;;;;;;;18.83;95.39;98393.03;4933641;29;20243;-63
2023/06/19 03:16:15;;;;;;;3.83;2.37;;;;;;;18.79;94.57;98396.31;4914953;29;20299;-63
2023/06/19 03:18:42;;;;;;;4.97;2.37;;;;;;;18.76;94.54;98391.44;4919503;29;20314;-63
2023/06/19 03:21:10;;;;;;;3.50;2.73;;;;;;;18.76;96.25;98389.59;4920136;28;20339;-63
2023/06/19 03:23:36;;;;;;;2.37;2.17;;;;;;;18.76;94.86;98388.78;4922347;29;20300;-63
2023/06/19 03:26:03;;;;;;;2.30;2.10;;;;;;;18.88;92.23;98387.13;4925181;29;20360;-63
2023/06/19 03:28:30;;;;;;;2.53;2.23;;;;;;;19.06;90.98;98396.22;4920788;29;20602;-63
2023/06/19 03:30:59;;;;;;;2.23;2.03;;;;;;;19.15;91.02;98400.22;5111146;23;20255;-63
2023/06/19 03:33:25;;;;;;;3.23;2.40;;;;;;;19.17;91.87;98408.75;4975854;28;20332;-63
2023/06/19 03:35:53;;;;;;;4.73;2.53;;;;;;;19.12;92.71;98411.22;4982470;28;20681;-63
2023/06/19 03:38:34;;;;;;;3.50;1.97;;;;;;;19.09;92.39;98416.94;4985646;28;20298;-63
2023/06/19 03:41:02;;;;;;;2.50;2.30;;;;;;;19.27;87.38;98410.94;4967544;28;20677;-63
2023/06/19 03:43:29;;;;;;;2.53;2.33;;;;;;;19.63;84.38;98422.69;4972802;28;21008;-63
2023/06/19 03:45:55;;;;;;;2.67;2.43;;;;;;;19.68;84.80;98430.81;4970075;28;20235;-63
2023/06/19 03:48:22;;;;;;;2.30;2.10;;;;;;;19.76;84.97;98435.06;4971845;28;20682;-63
2023/06/19 03:50:49;;;;;;;4.80;2.50;;;;;;;20.03;82.44;98440.19;4970925;28;20290;-63
2023/06/19 03:53:15;;;;;;;2.60;2.40;;;;;;;20.15;82.08;98424.38;4972650;28;20229;-63
2023/06/19 03:55:44;;;;;;;2.77;2.43;;;;;;;20.24;80.83;98414.28;4972608;28;20238;-63
2023/06/19 03:58:12;;;;;;;2.70;2.50;;;;;;;20.35;81.43;98421.50;4985684;28;20235;-63
2023/06/19 04:00:39;;;;;;;3.43;2.37;;;;;;;20.37;80.94;98431.91;4972015;28;20583;-63
2023/06/19 04:03:05;;;;;;;4.43;2.30;;;;;;;20.35;81.03;98424.16;4966678;28;20218;-64
2023/06/19 04:05:32;;;;;;;2.70;2.50;;;;;;;20.36;80.31;98439.03;4981963;28;20281;-63
2023/06/19 04:07:58;;;;;;;3.83;2.20;;;;;;;20.43;79.61;98436.34;4968111;28;20233;-63
2023/06/19 04:10:25;;;;;;;2.90;2.30;;;;;;;20.52;78.62;98434.19;4972529;28;20298;-63
2023/06/19 04:12:55;;;;;;;3.23;2.70;;;;;;;20.60;77.22;98444.50;4971434;28;20260;-63
2023/06/19 04:15:23;;;;;;;2.63;2.20;;;;;;;20.70;77.30;98450.13;4968024;28;20246;-63
2023/06/19 04:17:49;;;;;;;2.60;2.30;;;;;;;20.80;75.72;98452.25;4987669;28;20235;-63
2023/06/19 04:20:41;;;;;;;3.40;2.80;;;;;;;20.81;76.85;98461.03;4970827;28;20932;-63
2023/06/19 04:23:07;;;;;;;4.13;2.63;;;;;;;20.83;76.05;98466.94;4972460;28;20584;-63
2023/06/19 04:25:35;;;;;;;3.17;2.67;;;;;;;20.84;76.85;98456.09;4973785;28;20316;-64
2023/06/19 04:28:04;;;;;;;3.10;2.80;;;;;;;20.93;76.00;98454.75;4974129;28;20244;-63
2023/06/19 04:30:31;;;;;;;3.50;3.20;;;;;;;20.98;76.75;98456.75;4979288;28;20321;-63
2023/06/19 04:32:58;;;;;;;3.57;2.73;;;;;;;20.97;76.60;98449.84;4972384;28;20228;-63
2023/06/19 04:35:24;;;;;;;3.20;2.90;;;;;;;21.07;76.23;98446.63;4979796;28;21034;-63
2023/06/19 04:37:51;;;;;;;2.90;2.70;;;;;;;21.15;76.28;98450.84;4974187;28;20234;-63
2023/06/19 04:40:25;;;;;;;4.03;3.50;;;;;;;21.19;75.85;98446.72;4972701;28;20673;-63
2023/06/19 04:42:53;;;;;;;6.23;3.27;;;;;;;21.23;76.16;98426.63;4978194;28;20246;-63
2023/06/19 04:45:24;;;;;;;4.67;3.20;;;;;;;21.30;75.39;98424.69;4974729;28;20244;-63
2023/06/19 04:47:51;;;;;;;2.90;2.70;;;;;;;21.35;74.42;98424.81;4974093;28;20289;-63
2023/06/19 04:50:23;;;;;;;4.43;2.77;;;;;;;21.41;74.26;98419.63;4973510;28;20669;-63
2023/06/19 04:52:50;;;;;;;3.20;2.90;;;;;;;21.51;74.29;98422.56;4972163;28;20255;-63
2023/06/19 04:55:25;;;;;;;3.13;2.80;;;;;;;21.51;73.51;98409.28;4972479;28;20318;-63
2023/06/19 04:57:52;;;;;;;4.17;2.83;;;;;;;21.58;71.48;98411.84;4972508;28;20234;-63
2023/06/19 05:00:24;;;;;;;2.83;2.30;;;;;;;21.65;70.67;98410.72;4975078;28;20327;-63
2023/06/19 05:02:51;;;;;;;2.77;2.47;;;;;;;21.69;70.14;98416.41;4975713;28;20234;-63
2023/06/19 05:05:23;;;;;;;2.30;2.10;;;;;;;21.79;70.13;98419.28;4974418;28;20231;-63
2023/06/19 05:07:49;;;;;;;2.93;2.50;;;;;;;21.82;69.30;98429.44;4977610;28;20239;-63
2023/06/19 05:10:41;;;;;;;3.87;2.20;;;;;;;21.91;68.12;98415.81;4971464;28;20284;-63
2023/06/19 05:13:07;;;;;;;2.15;1.95;;;;;;;22.02;69.61;98416.88;4969660;28;20301;-63
2023/06/19 05:15:35;;;;;;;2.30;2.10;;;;;;;22.04;68.44;98415.59;4975120;28;20232;-63
2023/06/19 05:18:02;;;;;;;2.10;1.90;;;;;;;22.16;67.63;98415.63;4973606;28;20244;-63
2023/06/19 05:20:29;;;;;;;1.90;1.60;;;;;;;22.18;66.11;98410.88;4970900;28;20354;-63
2023/06/19 05:22:56;;;;;;;2.17;1.57;;;;;;;22.35;65.32;98421.59;4968862;28;20235;-63
2023/06/19 05:25:22;;;;;;;2.30;1.77;;;;;;;22.39;65.68;98421.94;4973523;28;20238;-63
2023/06/19 05:27:49;;;;;;;2.17;1.60;;;;;;;22.52;64.38;98427.03;4977583;28;20235;-63
2023/06/19 05:30:42;;;;;;;2.00;1.70;;;;;;;22.58;63.68;98416.50;4972485;28;20286;-63
2023/06/19 05:33:09;;;;;;;2.87;1.87;;;;;;;22.70;63.91;98418.13;4972923;28;20251;-63
2023/06/19 05:35:36;;;;;;;1.80;1.67;;;;;;;22.75;63.75;98409.41;4975894;28;20591;-63
2023/06/19 05:38:02;;;;;;;1.87;1.77;;;;;;;22.72;63.49;98411.75;4972734;28;20722;-63
2023/06/19 05:40:29;;;;;;;1.80;1.70;;;;;;;22.88;62.78;98410.97;4975632;28;20233;-63
2023/06/19 05:42:58;;;;;;;4.43;1.90;;;;;;;23.23;61.87;98411.94;4969525;28;20232;-64
2023/06/19 05:45:24;;;;;;;1.70;1.60;;;;;;;23.40;61.08;98410.09;4977216;28;20222;-64
2023/06/19 05:47:52;;;;;;;2.00;1.83;;;;;;;23.61;62.47;98413.09;4974198;28;20262;-64
2023/06/19 05:50:23;;;;;;;2.50;1.70;;;;;;;23.44;61.25;98411.22;4973332;28;21047;-64
2023/06/19 05:52:49;;;;;;;2.00;1.80;;;;;;;23.53;61.40;98429.47;4974708;28;20239;-64
2023/06/19 05:55:20;;;;;;;4.47;1.90;;;;;;;23.52;59.38;98428.69;4976440;28;20234;-64
2023/06/19 05:57:46;;;;;;;4.07;1.63;;;;;;;23.48;60.07;98437.38;4971935;28;20626;-64
2023/06/19 06:00:15;;;;;;;2.00;1.70;;;;;;;23.49;61.87;98441.66;4969326;28;20714;-64
2023/06/19 06:02:42;;;;;;;1.67;1.57;;;;;;;23.48;60.16;98440.88;4971888;28;20241;-64
2023/06/19 06:05:10;;;;;;;1.90;1.60;;;;;;;23.52;61.91;98455.31;4971956;28;20230;-64
2023/06/19 06:07:37;;;;;;;2.63;1.70;;;;;;;23.71;61.36;98455.09;4974866;28;20400;-64
2023/06/19 06:10:05;;;;;;;2.87;1.77;;;;;;;23.86;59.82;98454.53;4969839;28;20231;-64
2023/06/19 06:12:34;;;;;;;2.20;1.80;;;;;;;24.06;61.36;98464.72;4975329;28;20332;-64
2023/06/19 06:15:01;;;;;;;3.10;1.90;;;;;;;24.07;60.63;98468.22;4970221;28;20768;-64
2023/06/19 06:17:27;;;;;;;3.30;2.30;;;;;;;23.96;62.76;98469.88;4977217;28;20275;-64
2023/06/19 06:19:54;;;;;;;2.40;2.10;;;;;;;23.98;64.29;98473.94;4972459;28;20228;-64
2023/06/19 06:22:22;;;;;;;2.73;2.20;;;;;;;23.84;61.28;98476.13;4986249;28;20236;-64
2023/06/19 06:24:48;;;;;;;2.10;1.90;;;;;;;23.88;62.31;98481.75;4975744;28;20240;-64
2023/06/19 06:27:15;;;;;;;4.37;3.00;;;;;;;23.89;61.55;98486.84;4973074;28;20240;-64
2023/06/19 06:29:42;;;;;;;2.10;1.90;;;;;;;23.90;62.21;98492.97;4972960;28;20216;-64
2023/06/19 06:32:10;;;;;;;2.43;2.23;;;;;;;23.91;61.77;98494.59;4969622;28;20244;-64
2023/06/19 06:34:37;;;;;;;3.70;1.97;;;;;;;23.92;63.28;98501.56;4972894;28;20603;-65
2023/06/19 06:37:04;;;;;;;2.47;2.27;;;;;;;23.99;64.02;98496.91;4972207;28;20227;-64
2023/06/19 06:39:32;;;;;;;2.37;2.17;;;;;;;23.87;61.98;98512.91;4973803;28;20238;-64
2023/06/19 06:41:58;;;;;;;4.67;2.00;;;;;;;24.08;60.56;98515.16;4956054;28;20249;-64
2023/06/19 06:44:25;;;;;;;3.03;2.50;;;;;;;24.18;57.90;98515.31;4978568;28;20325;-64
2023/06/19 06:46:51;;;;;;;2.67;1.70;;;;;;;24.27;60.33;98526.38;4973724;28;20242;-64
2023/06/19 06:49:18;;;;;;;2.40;2.20;;;;;;;24.14;58.42;98514.19;4970121;28;20285;-64
2023/06/19 06:51:45;;;;;;;3.37;2.20;;;;;;;24.28;58.70;98518.16;4970065;28;20241;-64
2023/06/19 06:54:12;;;;;;;2.70;2.07;;;;;;;24.36;59.24;98514.25;4972167;28;20253;-64
2023/06/19 06:56:40;;;;;;;3.20;2.27;;;;;;;24.39;60.19;98519.09;4972768;28;20233;-64
2023/06/19 06:59:06;;;;;;;3.43;2.17;;;;;;;24.32;60.38;98531.78;4970535;28;20267;-64
2023/06/19 07:01:33;;;;;;;1.80;1.70;;;;;;;23.97;60.20;98530.97;4973500;28;20239;-64
2023/06/19 07:03:59;;;;;;;2.57;2.07;;;;;;;23.90;61.17;98532.97;4971373;28;20277;-64
2023/06/19 07:06:26;;;;;;;3.13;2.00;;;;;;;23.94;58.82;98539.44;4974755;28;20240;-64
2023/06/19 07:08:52;;;;;;;4.40;2.40;;;;;;;23.65;60.94;98542.13;4973237;28;21077;-64
2023/06/19 07:11:19;;;;;;;2.47;2.03;;;;;;;23.65;61.30;98541.34;4967261;28;20693;-64
2023/06/19 07:13:47;;;;;;;3.97;2.43;;;;;;;23.65;61.25;98547.44;4977291;28;20241;-64
2023/06/19 07:16:13;;;;;;;3.40;2.70;;;;;;;23.33;63.49;98541.78;4969605;28;20246;-64
2023/06/19 07:18:41;;;;;;;3.90;2.87;;;;;;;23.49;62.95;98542.88;4975672;28;20460;-64
2023/06/19 07:21:13;;;;;;;3.23;2.40;;;;;;;23.15;64.31;98551.53;4963450;28;20311;-64
2023/06/19 07:23:40;;;;;;;2.93;2.50;;;;;;;23.49;65.18;98551.69;4970664;28;20240;-64
2023/06/19 07:26:07;;;;;;;3.37;2.80;;;;;;;23.70;65.34;98552.88;4972576;28;20228;-64
2023/06/19 07:28:35;;;;;;;3.23;2.93;;;;;;;24.02;64.06;98555.06;4970019;28;20286;-64
2023/06/19 07:31:04;;;;;;;4.70;3.20;;;;;;;24.37;62.33;98549.75;4968809;28;20295;-64
2023/06/19 07:33:30;;;;;;;6.40;3.10;;;;;;;24.88;60.70;98547.84;4971073;28;20254;-64
2023/06/19 07:35:57;;;;;;;3.30;3.00;;;;;;;25.43;60.17;98563.19;4970677;28;20701;-64
2023/06/19 07:38:24;;;;;;;4.07;3.00;;;;;;;25.90;56.86;98561.81;4973739;28;20586;-64
2023/06/19 07:40:51;;;;;;;3.23;2.80;;;;;;;26.05;57.43;98561.94;4970072;28;20307;-64
2023/06/19 07:43:18;;;;;;;4.47;2.70;;;;;;;26.45;54.08;98569.78;4967890;28;20265;-64
2023/06/19 07:45:44;;;;;;;3.70;3.00;;;;;;;26.07;55.82;98573.19;4974073;28;20734;-64
2023/06/19 07:48:12;;;;;;;2.97;2.67;;;;;;;25.83;56.33;98574.56;4968656;28;20232;-64
2023/06/19 07:50:39;;;;;;;4.10;2.87;;;;;;;25.77;57.66;98573.72;4973673;28;20711;-64
2023/06/19 07:53:06;;;;;;;4.03;2.80;;;;;;;25.34;58.14;98576.19;4971269;28;20294;-64
2023/06/19 07:55:34;;;;;;;2.87;2.57;;;;;;;25.36;57.48;98568.72;4972670;28;20676;-64
2023/06/19 07:58:01;;;;;;;3.50;3.20;;;;;;;24.88;59.96;98573.75;4969192;28;20232;-64
2023/06/19 08:00:28;;;;;;;4.97;3.23;;;;;;;25.13;59.20;98567.09;4976724;28;20239;-64
2023/06/19 08:02:54;;;;;;;4.20;2.97;;;;;;;25.16;59.17;98572.75;4972804;28;20814;-64
2023/06/19 08:05:24;;;;;;;3.27;2.97;;;;;;;24.99;59.97;98572.00;4976224;28;20233;-64
2023/06/19 08:07:51;;;;;;;3.17;2.87;;;;;;;25.37;58.39;98574.88;4976598;28;20675;-64
2023/06/19 08:10:23;;;;;;;3.87;3.57;;;;;;;25.18;59.47;98565.31;4973485;28;20702;-64
2023/06/19 08:12:49;;;;;;;3.57;3.27;;;;;;;25.17;59.45;98577.03;4974307;28;20324;-64
2023/06/19 08:15:41;;;;;;;5.07;3.23;;;;;;;25.25;59.87;98575.00;4973897;28;20244;-64
2023/06/19 08:18:08;;;;;;;5.33;3.47;;;;;;;25.40;59.46;98575.19;4976979;28;20225;-64
2023/06/19 08:20:36;;;;;;;3.97;3.57;;;;;;;25.32;58.59;98570.28;4978068;28;20719;-64
2023/06/19 08:23:02;;;;;;;4.60;3.13;;;;;;;25.58;58.18;98562.56;4972797;28;20240;-64
2023/06/19 08:25:29;;;;;;;3.97;3.58;;;;;;;25.89;56.29;98568.22;4978161;28;20636;-64
2023/06/19 08:27:55;;;;;;;6.67;4.00;;;;;;;25.61;57.24;98568.22;4973918;28;20236;-64
2023/06/19 08:30:23;;;;;;;3.47;3.17;;;;;;;25.16;57.04;98564.75;4973671;28;20591;-64
2023/06/19 08:32:49;;;;;;;4.57;3.37;;;;;;;25.85;57.02;98577.81;4976108;28;20294;-64
2023/06/19 08:35:44;;;;;;;2.93;2.63;;;;;;;26.02;55.60;98575.84;4977291;28;20609;-64
2023/06/19 08:38:10;;;;;;;4.10;3.70;;;;;;;25.51;58.88;98565.44;4971390;28;20241;-64
2023/06/19 08:40:37;;;;;;;6.33;3.60;;;;;;;25.50;59.06;98569.97;4977303;28;20245;-64
2023/06/19 08:43:04;;;;;;;4.00;3.63;;;;;;;25.19;59.27;98566.09;4969795;28;20246;-64
2023/06/19 08:45:30;;;;;;;4.37;3.10;;;;;;;25.60;59.10;98585.31;4979910;28;20226;-64
2023/06/19 08:48:02;;;;;;;4.00;3.60;;;;;;;25.86;58.48;98582.09;4973059;28;20281;-64
2023/06/19 08:50:30;;;;;;;4.63;3.90;;;;;;;25.87;58.28;98587.19;4972424;28;20264;-64
2023/06/19 08:52:59;;;;;;;4.80;4.10;;;;;;;25.83;59.17;98575.41;4980621;28;20241;-64
2023/06/19 08:55:25;;;;;;;6.03;3.90;;;;;;;26.22;58.85;98583.25;4979479;28;20238;-64
2023/06/19 08:57:52;;;;;;;8.40;4.27;;;;;;;25.95;58.79;98591.28;4970562;28;20235;-64
2023/06/19 09:00:27;;;;;;;5.43;3.90;;;;;;;26.29;57.31;98595.59;4974500;28;20674;-64
2023/06/19 09:03:00;;;;;;;4.70;3.70;;;;;;;25.94;57.80;98581.63;4969326;28;20315;-64
2023/06/19 09:05:27;;;;;;;4.57;3.80;;;;;;;25.72;58.57;98587.03;4968935;28;20631;-64
2023/06/19 09:08:00;;;;;;;3.93;3.30;;;;;;;25.82;57.29;98579.13;4975945;28;20230;-64
2023/06/19 09:10:28;;;;;;;6.93;3.70;;;;;;;25.87;58.19;98573.00;4971547;28;20238;-64
2023/06/19 09:12:59;;;;;;;5.37;3.60;;;;;;;26.24;56.75;98580.34;4976941;28;20253;-64
2023/06/19 09:15:29;;;;;;;3.40;3.10;;;;;;;26.50;56.45;98592.03;4974076;28;20243;-64
2023/06/19 09:18:02;;;;;;;6.40;3.33;;;;;;;26.58;56.26;98582.69;4973647;28;20236;-64
2023/06/19 09:20:28;;;;;;;6.57;3.70;;;;;;;26.87;54.25;98576.25;4975792;28;20228;-64
2023/06/19 09:22:55;;;;;;;5.50;3.60;;;;;;;27.15;53.38;98583.06;4969702;28;20612;-64
2023/06/19 09:25:26;;;;;;;4.70;3.70;;;;;;;27.08;52.38;98585.16;4978419;28;21029;-64
2023/06/19 09:27:53;;;;;;;4.97;3.33;;;;;;;27.31;51.23;98583.91;4977080;28;20236;-64
2023/06/19 09:30:24;;;;;;;3.47;3.17;;;;;;;27.30;51.11;98576.94;4975670;28;20751;-64
2023/06/19 09:32:50;;;;;;;3.65;3.15;;;;;;;27.36;50.88;98583.16;4990280;28;20234;-64
2023/06/19 09:35:23;;;;;;;4.47;3.47;;;;;;;26.90;52.82;98568.47;4972958;28;20238;-64
2023/06/19 09:37:53;;;;;;;4.63;3.60;;;;;;;27.30;52.68;98571.59;4971284;28;20238;-64
2023/06/19 09:40:24;;;;;;;4.40;3.40;;;;;;;27.55;51.42;98568.25;4974430;28;20236;-64
2023/06/19 09:42:55;;;;;;;4.00;3.08;;;;;;;27.89;51.58;98569.63;4978081;28;20237;-64
2023/06/19 09:45:31;;;;;;;5.63;3.40;;;;;;;27.54;50.30;98563.94;4972979;28;20277;-65
2023/06/19 09:47:58;;;;;;;4.25;3.20;;;;;;;27.59;51.20;98571.19;4970747;28;20219;-65
2023/06/19 09:50:43;;;;;;;5.13;3.67;;;;;;;27.54;49.99;98561.25;4971077;28;20231;-64
2023/06/19 09:53:11;;;;;;;3.83;3.42;;;;;;;27.55;50.36;98554.84;4971540;28;20674;-64
2023/06/19 09:55:40;;;;;;;4.05;3.60;;;;;;;26.79;51.90;98554.22;4972194;28;20234;-64
2023/06/19 09:58:07;;;;;;;4.30;3.90;;;;;;;26.92;52.08;98560.19;4950804;28;20241;-65
2023/06/19 10:00:35;;;;;;;4.40;4.00;;;;;;;27.20;52.59;98558.97;4973253;28;20263;-65
2023/06/19 10:03:02;;;;;;;6.00;3.63;;;;;;;27.44;53.02;98557.69;4968149;28;20241;-65
2023/06/19 10:05:30;;;;;;;5.20;4.13;;;;;;;27.41;51.90;98556.38;4973953;28;20237;-65
2023/06/19 10:07:59;;;;;;;4.73;3.80;;;;;;;27.19;52.32;98554.69;4971319;28;20327;-65
2023/06/19 10:10:27;;;;;;;5.07;4.10;;;;;;;27.07;52.85;98556.78;4975670;28;20733;-65
2023/06/19 10:12:58;;;;;;;5.63;3.65;;;;;;;27.40;53.50;98552.06;4976724;28;20241;-65
2023/06/19 10:15:26;;;;;;;4.18;3.63;;;;;;;27.82;52.32;98547.63;4972053;28;20252;-65
2023/06/19 10:17:54;;;;;;;4.95;3.30;;;;;;;28.12;51.82;98549.53;4972958;28;20309;-65
2023/06/19 10:20:32;;;;;;;5.40;4.13;;;;;;;27.92;49.72;98554.88;4970723;28;20686;-65
2023/06/19 10:23:02;;;;;;;7.22;3.55;;;;;;;28.46;49.51;98550.84;4970869;28;20279;-65
2023/06/19 10:25:31;;;;;;;4.10;3.50;;;;;;;28.47;48.85;98552.47;4974807;28;20235;-65
2023/06/19 10:27:59;;;;;;;5.28;4.75;;;;;;;28.10;50.53;98548.97;4969840;28;20237;-62
2023/06/19 10:30:26;;;;;;;3.97;3.45;;;;;;;28.17;50.36;98548.72;4974694;28;20238;-62
2023/06/19 10:32:53;;;;;;;5.75;4.25;;;;;;;28.03;51.25;98550.34;4972346;28;20250;-62
2023/06/19 10:35:24;;;;;;;4.57;4.18;;;;;;;27.78;50.84;98541.19;4970309;28;20244;-62
2023/06/19 10:37:51;;;;;;;4.32;3.95;;;;;;;27.96;49.75;98531.81;4975398;28;20229;-62
2023/06/19 10:40:23;;;;;;;4.30;3.80;;;;;;;27.69;50.73;98540.88;4973345;28;20298;-62
2023/06/19 10:42:49;;;;;;;4.77;4.13;;;;;;;27.70;52.29;98532.59;4974442;28;20235;-62
2023/06/19 10:45:42;;;;;;;5.65;4.18;;;;;;;28.01;50.68;98531.00;4968819;28;20239;-62
2023/06/19 10:48:09;;;;;;;4.70;3.83;;;;;;;28.13;50.17;98527.00;4969228;28;20237;-62
2023/06/19 10:50:40;;;;;;;4.82;3.50;;;;;;;28.10;50.60;98540.94;4975572;28;20293;-62
2023/06/19 10:53:07;;;;;;;3.97;3.50;;;;;;;28.17;50.37;98531.84;4973732;28;20321;-62
2023/06/19 10:55:33;;;;;;;4.57;3.60;;;;;;;28.36;49.41;98529.38;4976384;28;20744;-62
2023/06/19 10:58:00;;;;;;;4.03;3.73;;;;;;;28.29;48.89;98521.63;4968664;28;20643;-62
2023/06/19 11:00:28;;;;;;;5.45;4.22;;;;;;;28.69;48.09;98517.22;4973059;28;20229;-63
2023/06/19 11:02:57;;;;;;;4.45;4.05;;;;;;;28.44;47.72;98520.78;4969316;28;20235;-62
2023/06/19 11:05:26;;;;;;;5.20;4.15;;;;;;;28.57;48.24;98511.38;4974950;28;20236;-62
2023/06/19 11:07:54;;;;;;;4.72;4.07;;;;;;;28.91;47.61;98504.59;4974113;28;20240;-62
2023/06/19 11:10:25;;;;;;;4.25;3.85;;;;;;;28.92;49.44;98512.34;4971537;28;20243;-62
2023/06/19 11:12:54;;;;;;;4.95;4.45;;;;;;;28.76;46.99;98508.94;4971778;28;20232;-62
2023/06/19 11:15:29;;;;;;;4.65;4.25;;;;;;;28.66;48.80;98507.03;4973269;28;20605;-62
2023/06/19 11:17:57;;;;;;;5.18;4.32;;;;;;;28.65;46.92;98510.78;4967320;28;20239;-62
2023/06/19 11:20:25;;;;;;;4.80;3.88;;;;;;;28.32;47.57;98506.84;4971312;28;20791;-62
2023/06/19 11:22:57;;;;;;;4.32;3.78;;;;;;;28.48;46.69;98494.22;4972653;28;20233;-62
2023/06/19 11:25:24;;;;;;;4.60;3.92;;;;;;;28.88;46.73;98500.53;4973163;28;20651;-63
2023/06/19 11:27:51;;;;;;;4.40;3.95;;;;;;;29.10;45.25;98496.69;4975489;28;20695;-62
2023/06/19 11:30:31;;;;;;;6.75;3.85;;;;;;;28.58;46.50;98494.19;4968931;28;20291;-62
2023/06/19 11:33:00;;;;;;;4.55;4.15;;;;;;;28.65;46.96;98483.16;4969711;28;20759;-62
2023/06/19 11:35:35;;;;;;;3.88;3.58;;;;;;;29.09;45.24;98487.84;4977567;28;20229;-62
2023/06/19 11:38:03;;;;;;;7.53;4.30;;;;;;;28.51;47.28;98477.56;4976341;28;20227;-62
2023/06/19 11:40:39;;;;;;;4.70;4.30;;;;;;;28.62;47.86;98481.81;4975749;28;20244;-62
2023/06/19 11:43:06;;;;;;;4.53;4.13;;;;;;;28.79;46.90;98476.16;4970950;28;20588;-62